Time;durP1;ratioP1;P1;durP2;ratioP2;P2;SDS_P1;SDS_P2;PMS_P1;PMS_P2;Temp;Humidity;BMP_temperature;BMP_pressure;BME280_temperature;BME280_humidity;BME280_pressure;Samples;Min_cycle;Max_cycle;Signal;HPM_P1;HPM_P2
2022/05/21 07:58:42;;;;;;;24.90;13.70;;;;;;;14.50;79.08;102001.81;5326696;27;1203709;-78
2022/05/21 08:01:13;;;;;;;15.60;13.07;;;;;;;14.55;79.55;102004.59;5341871;27;20281;-80
2022/05/21 08:03:46;;;;;;;21.27;13.23;;;;;;;14.67;77.88;102002.25;5324716;27;20042;-79
2022/05/21 08:06:17;;;;;;;18.67;10.48;;;;;;;14.72;76.77;102009.78;5338152;28;20465;-77
2022/05/21 08:08:52;;;;;;;26.98;13.05;;;;;;;14.72;77.07;102010.59;5333466;27;20027;-77
2022/05/21 08:11:24;;;;;;;19.52;11.80;;;;;;;14.83;75.87;102018.91;5342959;28;20099;-77
2022/05/21 08:13:55;;;;;;;16.90;11.27;;;;;;;14.78;75.06;102025.38;5342742;28;20114;-80
2022/05/21 08:16:30;;;;;;;20.15;11.00;;;;;;;14.81;74.34;102019.22;5340346;28;20024;-79
2022/05/21 08:19:01;;;;;;;17.63;12.18;;;;;;;14.85;75.22;102019.47;5323017;28;20443;-80
2022/05/21 08:21:33;;;;;;;19.75;11.32;;;;;;;15.02;74.88;102019.06;5321616;28;20099;-77
2022/05/21 08:26:59;;;;;;;18.00;11.05;;;;;;;15.22;73.63;102025.31;5333040;28;20119;-79
2022/05/21 08:29:35;;;;;;;21.35;12.52;;;;;;;15.15;71.01;102021.19;5322101;28;20026;-77
2022/05/21 08:32:06;;;;;;;19.13;10.82;;;;;;;15.11;71.33;102034.06;5322274;28;20016;-78
2022/05/21 08:34:38;;;;;;;18.48;10.85;;;;;;;15.25;71.89;102028.66;5328551;28;20071;-82
2022/05/21 08:37:09;;;;;;;20.02;12.88;;;;;;;15.38;72.42;102019.59;5342833;28;20031;-75
2022/05/21 08:39:40;;;;;;;22.65;11.85;;;;;;;15.31;71.05;102028.31;5321344;27;20026;-79
2022/05/21 08:42:31;;;;;;;18.27;12.43;;;;;;;15.11;73.36;102025.69;5318427;28;20024;-75
2022/05/21 08:45:17;;;;;;;17.83;11.00;;;;;;;15.25;73.12;102034.25;5329818;28;20032;-80
2022/05/21 08:48:09;;;;;;;19.17;12.85;;;;;;;15.26;73.35;102033.94;5342900;27;20034;-80
2022/05/21 08:50:46;;;;;;;21.13;12.27;;;;;;;15.34;72.92;102026.88;5341452;27;20051;-80
2022/05/21 08:53:23;;;;;;;19.73;12.10;;;;;;;15.24;71.99;102022.25;5335817;27;20028;-78
2022/05/21 08:55:58;;;;;;;17.45;11.55;;;;;;;15.09;72.57;102022.38;5340762;27;20024;-79
2022/05/21 08:58:55;;;;;;;17.80;11.93;;;;;;;15.11;73.08;102022.88;5341650;27;20043;-78
2022/05/21 09:01:30;;;;;;;17.85;12.02;;;;;;;15.38;72.59;102023.22;5323467;27;20020;-77
2022/05/21 09:04:03;;;;;;;23.15;12.13;;;;;;;15.50;72.51;102019.22;5327137;28;20510;-78
2022/05/21 09:06:48;;;;;;;19.55;10.63;;;;;;;15.72;70.42;102013.13;5341339;27;20073;-79
2022/05/21 09:09:47;;;;;;;14.80;9.57;;;;;;;15.72;69.89;102022.38;5324125;27;20107;-76
2022/05/21 09:12:21;;;;;;;17.30;10.98;;;;;;;15.66;70.08;102021.53;5306910;28;20039;-78
2022/05/21 09:15:00;;;;;;;18.10;10.15;;;;;;;15.78;70.39;102020.34;5307395;28;20024;-78
2022/05/21 09:17:42;;;;;;;14.95;11.00;;;;;;;15.86;69.09;102019.69;5308170;28;20032;-79
2022/05/21 09:20:20;;;;;;;13.77;10.30;;;;;;;15.96;69.25;102005.59;5307930;28;20103;-80
2022/05/21 09:22:56;;;;;;;14.52;8.77;;;;;;;16.07;68.29;102000.69;5310337;28;20024;-77
2022/05/21 09:25:27;;;;;;;12.27;8.13;;;;;;;16.12;66.38;102008.19;5318862;28;20205;-76
2022/05/21 09:28:08;;;;;;;14.10;6.70;;;;;;;15.99;65.31;101999.38;5327383;28;20110;-78
2022/05/21 09:30:49;;;;;;;10.95;7.32;;;;;;;15.99;65.75;101999.38;5306569;28;20028;-76
2022/05/21 09:33:46;;;;;;;14.35;8.63;;;;;;;16.04;66.15;102002.13;5306939;28;20032;-81
2022/05/21 09:36:31;;;;;;;12.77;7.22;;;;;;;16.09;66.39;102010.47;5318319;28;20039;-82
2022/05/21 09:39:03;;;;;;;9.82;6.82;;;;;;;16.04;66.72;102001.31;5328778;28;20031;-81
2022/05/21 09:41:36;;;;;;;15.13;10.30;;;;;;;16.23;66.30;102006.91;5328849;28;20019;-81
2022/05/21 09:47:22;;;;;;;14.02;6.80;;;;;;;16.11;66.76;102003.75;5326564;28;20032;-78
2022/05/21 09:50:05;;;;;;;12.60;7.60;;;;;;;16.12;66.98;102008.19;5327636;28;20023;-77
2022/05/21 09:52:40;;;;;;;10.23;5.53;;;;;;;15.90;65.81;102006.78;5306001;28;20051;-75
2022/05/21 09:55:32;;;;;;;19.35;13.85;;;;;;;15.97;66.44;102021.22;5307299;28;20494;-81
2022/05/21 09:58:13;;;;;;;13.48;8.98;;;;;;;16.02;66.41;102021.16;5316468;28;20075;-82
2022/05/21 10:00:53;;;;;;;15.00;8.43;;;;;;;16.12;66.16;102017.41;5327729;28;20028;-79
2022/05/21 10:03:38;;;;;;;12.18;6.97;;;;;;;16.27;65.94;102019.19;5328058;28;20035;-78
2022/05/21 10:06:24;;;;;;;15.88;6.68;;;;;;;16.37;66.29;102018.22;5327287;28;20402;-78
2022/05/21 10:11:57;;;;;;;26.63;19.33;;;;;;;16.42;67.19;102016.19;5327473;28;19915;-78
2022/05/21 10:14:37;;;;;;;12.57;7.13;;;;;;;16.37;65.04;102027.47;5325530;28;20549;-81
2022/05/21 10:17:27;;;;;;;10.13;7.30;;;;;;;16.43;65.65;102025.41;5327268;27;20031;-86
2022/05/21 10:20:20;;;;;;;15.43;9.32;;;;;;;16.55;65.48;102027.78;5325725;28;20016;-80
2022/05/21 10:23:00;;;;;;;17.38;9.55;;;;;;;16.47;64.63;102024.53;5326241;28;20165;-77
2022/05/21 10:25:39;;;;;;;10.75;8.05;;;;;;;16.44;65.27;102022.34;5314217;28;20520;-78
2022/05/21 10:28:28;;;;;;;15.05;9.25;;;;;;;16.38;66.21;102034.72;5304112;28;20028;-80
2022/05/21 10:31:29;;;;;;;26.17;21.08;;;;;;;16.36;65.38;102017.41;5320945;28;20070;-81
2022/05/21 10:34:33;;;;;;;14.95;9.88;;;;;;;16.42;66.31;102029.38;5326904;28;20051;-82
2022/05/21 10:37:30;;;;;;;15.63;12.23;;;;;;;16.57;66.74;102026.34;5326649;28;20385;-82
2022/05/21 10:40:16;;;;;;;13.00;8.60;;;;;;;16.61;65.04;102032.16;5326954;27;20042;-81
2022/05/21 10:43:25;;;;;;;15.02;8.77;;;;;;;16.73;65.88;102018.56;5312612;28;20438;-76
2022/05/21 10:46:25;;;;;;;11.35;7.93;;;;;;;16.69;64.39;102031.50;5321275;28;20169;-74
2022/05/21 10:49:34;;;;;;;10.00;7.00;;;;;;;16.76;62.81;102028.31;5325433;28;20020;-75
2022/05/21 10:52:18;;;;;;;38.55;30.77;;;;;;;16.73;64.11;102026.97;5326263;28;20023;-76
2022/05/21 10:55:16;;;;;;;11.90;7.60;;;;;;;16.83;64.50;102023.22;5326523;28;20108;-76
2022/05/21 10:58:11;;;;;;;11.93;6.82;;;;;;;16.85;62.89;102026.53;5324999;28;20401;-77
2022/05/21 11:01:03;;;;;;;10.75;6.07;;;;;;;16.99;62.32;102023.78;5323413;28;20327;-75
2022/05/21 11:03:37;;;;;;;16.60;7.93;;;;;;;17.04;62.86;102032.13;5325286;28;20413;-79
2022/05/21 11:06:18;;;;;;;10.93;7.00;;;;;;;17.12;63.02;102032.25;5326457;28;20019;-80
2022/05/21 11:09:02;;;;;;;11.02;5.97;;;;;;;17.17;61.84;102028.53;5326018;28;20036;-81
2022/05/21 11:11:52;;;;;;;8.48;4.65;;;;;;;17.12;60.19;102037.03;5325260;28;20054;-80
2022/05/21 11:14:50;;;;;;;9.35;5.40;;;;;;;17.04;60.80;102034.91;5316919;27;20035;-77
2022/05/21 11:17:31;;;;;;;7.88;5.18;;;;;;;16.87;61.37;102043.84;5320869;28;20028;-81
2022/05/21 11:20:45;;;;;;;9.35;5.22;;;;;;;17.14;60.89;102031.94;5307149;28;20434;-78
2022/05/21 11:23:26;;;;;;;6.47;3.97;;;;;;;17.34;58.77;102031.59;5318548;28;20073;-81
2022/05/21 11:26:14;;;;;;;34.63;30.92;;;;;;;17.48;57.95;102030.81;5304604;28;20024;-79
2022/05/21 11:28:51;;;;;;;10.38;4.78;;;;;;;17.49;56.94;102035.28;5313924;28;20382;-80
2022/05/21 11:38:13;;;;;;;9.43;4.72;;;;;;;17.53;58.80;102034.34;5280089;28;20048;-78
2022/05/21 11:41:39;;;;;;;11.70;7.00;;;;;;;17.73;58.04;102024.72;5281249;28;20024;-83
2022/05/21 11:47:05;;;;;;;6.38;4.03;;;;;;;18.04;56.12;102018.53;5319912;28;20028;-81
2022/05/21 11:49:47;;;;;;;11.95;5.45;;;;;;;18.08;54.73;102027.19;5307288;28;20463;-84
2022/05/21 11:52:27;;;;;;;6.95;4.43;;;;;;;18.09;55.16;102026.84;5325465;28;20030;-79
2022/05/21 11:55:07;;;;;;;9.93;3.78;;;;;;;18.38;56.01;102012.50;5325695;28;20430;-83
2022/05/21 11:58:11;;;;;;;9.43;3.88;;;;;;;18.47;54.62;102006.97;5325104;28;20070;-80
2022/05/21 12:00:44;;;;;;;10.93;5.30;;;;;;;18.56;55.01;102013.50;5286749;28;20042;-79
2022/05/21 12:03:19;;;;;;;9.80;4.72;;;;;;;18.65;55.86;102016.38;5302838;28;20093;-79
2022/05/21 12:05:54;;;;;;;9.65;5.80;;;;;;;18.65;54.27;102011.59;5303143;28;20111;-78
2022/05/21 12:08:26;;;;;;;7.75;5.22;;;;;;;18.72;54.61;102016.78;5316128;28;20377;-82
2022/05/21 12:11:04;;;;;;;8.75;5.05;;;;;;;18.80;54.43;102007.63;5320372;28;20040;-78
2022/05/21 12:13:35;;;;;;;10.50;4.38;;;;;;;18.87;53.35;102012.81;5318822;28;20036;-76
2022/05/21 12:16:22;;;;;;;9.18;4.30;;;;;;;18.80;52.33;102018.03;5302454;28;20032;-76
2022/05/21 12:18:54;;;;;;;6.53;3.67;;;;;;;18.74;53.29;102014.50;5306011;28;20044;-77
2022/05/21 12:21:29;;;;;;;8.52;4.07;;;;;;;18.75;54.27;102015.31;5302708;28;20060;-76
2022/05/21 12:24:37;;;;;;;10.65;5.25;;;;;;;18.74;54.14;102008.00;5311182;28;20087;-77
2022/05/21 12:27:21;;;;;;;7.95;3.85;;;;;;;18.57;53.72;102019.94;5250623;28;20032;-75
2022/05/21 12:30:30;;;;;;;7.30;3.40;;;;;;;18.67;53.42;102009.28;5299796;28;20044;-75
2022/05/21 12:33:02;;;;;;;7.47;3.47;;;;;;;18.55;52.96;102006.19;5303160;28;20028;-73
2022/05/21 12:35:44;;;;;;;7.53;3.75;;;;;;;18.33;52.43;102008.94;5302345;28;20079;-74
2022/05/21 12:38:35;;;;;;;7.72;3.95;;;;;;;18.64;53.06;102014.72;5323733;28;20043;-75
2022/05/21 12:41:23;;;;;;;6.30;3.75;;;;;;;18.90;54.34;102013.00;5316965;28;20024;-75
2022/05/21 12:43:55;;;;;;;11.18;3.70;;;;;;;18.88;53.41;102001.22;5304425;28;20016;-75
2022/05/21 12:46:32;;;;;;;8.75;4.15;;;;;;;19.08;53.20;102005.53;5314815;28;20106;-79
2022/05/21 12:49:09;;;;;;;8.38;4.10;;;;;;;19.05;53.90;102014.59;5306174;28;20040;-76
2022/05/21 12:51:49;;;;;;;8.27;3.53;;;;;;;18.79;51.09;102011.59;5307259;28;20137;-76
2022/05/21 12:54:25;;;;;;;12.95;4.65;;;;;;;18.84;52.21;102007.81;5314484;28;20526;-77
2022/05/21 12:57:11;;;;;;;10.98;3.50;;;;;;;18.66;52.22;102001.16;5327486;28;20043;-77
2022/05/21 12:59:42;;;;;;;8.30;3.78;;;;;;;18.77;52.80;102004.63;5307510;28;20394;-79
2022/05/21 13:02:17;;;;;;;9.93;3.80;;;;;;;18.78;53.28;102009.09;5306846;28;20176;-81
2022/05/21 13:04:49;;;;;;;8.15;3.80;;;;;;;18.73;53.10;102017.59;5307216;28;20034;-80
2022/05/21 13:07:38;;;;;;;8.77;3.97;;;;;;;18.61;52.15;102004.09;5308872;28;20479;-84
2022/05/21 13:10:31;;;;;;;7.75;3.72;;;;;;;18.53;53.36;102005.69;5328114;28;20024;-79
2022/05/21 13:13:19;;;;;;;10.60;5.50;;;;;;;18.68;53.76;102010.13;5328309;28;20035;-79
2022/05/21 13:15:58;;;;;;;9.88;4.05;;;;;;;18.61;54.29;102010.56;5314235;28;20027;-78
2022/05/21 13:18:49;;;;;;;10.02;4.78;;;;;;;18.75;53.43;102012.50;5317347;28;20028;-80
2022/05/21 13:21:24;;;;;;;7.70;4.03;;;;;;;18.75;53.01;102015.31;5323527;28;20096;-79
2022/05/21 13:23:55;;;;;;;6.75;3.88;;;;;;;18.79;52.94;102005.13;5314646;28;20051;-80
2022/05/21 13:26:29;;;;;;;8.87;4.83;;;;;;;18.80;53.04;102002.00;5329469;28;20039;-80
2022/05/21 13:29:26;;;;;;;8.50;4.97;;;;;;;18.76;52.22;102000.13;5330234;28;20287;-78
2022/05/21 13:32:22;;;;;;;9.80;6.18;;;;;;;18.97;51.97;101992.88;5321918;28;20438;-81
2022/05/21 13:34:56;;;;;;;;;;;;;;;19.08;50.87;101991.47;5307587;28;20039;-79
2022/05/21 13:37:32;;;;;;;8.43;4.68;;;;;;;19.07;51.56;101995.44;5325082;28;20250;-77
2022/05/21 13:40:14;;;;;;;7.95;4.63;;;;;;;19.07;51.46;101991.78;5328004;28;20024;-79
2022/05/21 13:42:48;;;;;;;9.55;5.30;;;;;;;18.86;51.04;101991.47;5328287;28;20428;-75
2022/05/21 13:45:29;;;;;;;12.67;6.50;;;;;;;18.95;52.19;101995.19;5315954;28;20039;-75
2022/05/21 13:48:15;;;;;;;10.82;5.90;;;;;;;18.85;52.55;101992.63;5305659;28;20104;-75
2022/05/21 13:50:50;;;;;;;10.73;5.45;;;;;;;18.69;52.97;101992.97;5307000;28;20327;-78
2022/05/21 13:53:27;;;;;;;8.43;5.70;;;;;;;18.57;53.80;101997.47;5305847;28;20551;-84
2022/05/21 13:56:01;;;;;;;15.13;7.40;;;;;;;18.57;54.00;101992.69;5305665;28;20081;-76
2022/05/21 13:58:38;;;;;;;14.20;8.48;;;;;;;18.69;53.89;101984.53;5304930;28;20513;-76
2022/05/21 14:01:23;;;;;;;12.93;8.00;;;;;;;18.73;54.49;101981.91;5306640;28;20028;-76
2022/05/21 14:04:08;;;;;;;10.68;6.13;;;;;;;18.84;53.79;101990.94;5309791;28;20030;-77
2022/05/21 14:06:45;;;;;;;8.50;5.20;;;;;;;18.88;52.87;101991.97;5314349;28;20035;-77
2022/05/21 14:09:23;;;;;;;8.70;4.22;;;;;;;18.78;51.61;101987.44;5323645;28;20116;-77
2022/05/21 14:12:04;;;;;;;8.75;3.78;;;;;;;18.87;49.85;101981.91;5327268;27;20024;-76
2022/05/21 14:14:41;;;;;;;8.02;3.85;;;;;;;19.01;50.47;101979.84;5310549;28;20028;-77
2022/05/21 14:17:26;;;;;;;9.50;3.80;;;;;;;18.89;51.94;101973.94;5306173;28;20024;-77
2022/05/21 14:20:12;;;;;;;10.40;3.83;;;;;;;19.08;52.61;101973.78;5317610;28;20023;-77
2022/05/21 14:22:44;;;;;;;9.00;4.18;;;;;;;19.11;51.75;101967.50;5323780;28;20079;-77
2022/05/21 14:25:27;;;;;;;5.10;3.28;;;;;;;19.24;52.33;101962.97;5306202;28;20055;-77
2022/05/21 14:28:04;;;;;;;7.82;3.75;;;;;;;19.33;50.99;101964.66;5305048;28;20039;-76
2022/05/21 14:30:39;;;;;;;8.20;3.55;;;;;;;19.48;50.42;101968.22;5305149;28;20024;-77
2022/05/21 14:33:12;;;;;;;9.20;5.57;;;;;;;19.45;50.63;101964.06;5305396;28;20028;-76
2022/05/21 14:35:45;;;;;;;8.35;3.80;;;;;;;19.44;51.20;101970.03;5304153;28;20024;-76
2022/05/21 14:38:20;;;;;;;6.32;3.28;;;;;;;19.07;50.28;101958.03;5305376;28;20020;-77
2022/05/21 14:40:57;;;;;;;8.45;3.20;;;;;;;19.18;51.24;101962.25;5317720;28;20040;-78
2022/05/21 14:43:40;;;;;;;6.68;3.28;;;;;;;19.08;51.47;101954.91;5317863;28;20122;-77
2022/05/21 14:49:01;;;;;;;6.30;3.15;;;;;;;19.10;50.66;101946.19;5325709;28;20411;-78
2022/05/21 14:54:32;;;;;;;8.38;2.95;;;;;;;19.31;50.90;101944.47;5304253;28;20118;-78
2022/05/21 14:57:04;;;;;;;8.15;3.50;;;;;;;19.20;50.11;101942.25;5315604;28;20368;-80
2022/05/21 14:59:35;;;;;;;6.80;3.47;;;;;;;19.15;49.75;101948.00;5319107;28;20175;-70
2022/05/21 15:02:08;;;;;;;7.43;3.60;;;;;;;19.34;50.63;101955.06;5313833;28;20012;-73
2022/05/21 15:04:39;;;;;;;9.07;3.70;;;;;;;19.37;50.44;101942.34;5304807;28;20096;-70
2022/05/21 15:07:38;;;;;;;6.82;3.13;;;;;;;19.38;50.84;101932.78;5301053;22;20049;-76
2022/05/21 15:10:10;;;;;;;8.63;4.45;;;;;;;19.34;49.75;101931.75;5262220;28;20032;-84
2022/05/21 15:13:01;;;;;;;;;;;;;;;;;;;;;
2022/05/21 15:15:41;;;;;;;6.20;3.40;;;;;;;19.36;50.08;101934.25;5278077;28;20105;-76
2022/05/21 15:18:16;;;;;;;6.75;2.80;;;;;;;19.42;49.77;101930.94;5282297;28;20044;-73
2022/05/21 15:20:47;;;;;;;7.90;3.05;;;;;;;19.43;50.39;101924.19;5283287;28;20032;-74
2022/05/21 15:23:19;;;;;;;7.25;3.38;;;;;;;19.45;49.39;101930.31;5282379;28;20025;-76
2022/05/21 15:25:50;;;;;;;6.90;3.08;;;;;;;19.42;48.96;101924.50;5283109;28;20035;-80
2022/05/21 15:28:21;;;;;;;7.68;3.10;;;;;;;19.45;49.05;101929.47;5286748;28;20032;-85
2022/05/21 15:30:56;;;;;;;7.65;2.95;;;;;;;19.49;49.20;101928.50;5291897;28;20020;-84
2022/05/21 15:33:27;;;;;;;8.15;2.70;;;;;;;19.17;49.62;101931.66;5295115;28;20052;-82
2022/05/21 15:35:59;;;;;;;7.65;2.78;;;;;;;19.38;49.59;101929.97;5298956;28;20025;-81
2022/05/21 15:38:30;;;;;;;11.00;3.20;;;;;;;19.40;49.85;101930.44;5291233;28;20032;-83
2022/05/21 15:41:03;;;;;;;10.13;3.42;;;;;;;19.20;49.39;101928.19;5284420;28;20039;-84
2022/05/21 15:43:34;;;;;;;5.28;2.22;;;;;;;18.98;48.85;101923.44;5283273;28;20028;-83
2022/05/21 15:46:06;;;;;;;8.90;3.33;;;;;;;19.09;49.15;101919.19;5266109;28;20036;-83
2022/05/21 15:48:39;;;;;;;10.25;3.55;;;;;;;19.25;50.91;101917.66;5283059;28;20399;-75
2022/05/21 15:51:12;;;;;;;6.65;3.58;;;;;;;19.25;49.66;101916.81;5281863;28;20013;-83
2022/05/21 15:53:44;;;;;;;6.40;2.38;;;;;;;19.36;49.38;101909.75;5282886;28;20082;-83
2022/05/21 15:56:17;;;;;;;5.63;2.28;;;;;;;19.53;49.42;101908.97;5286477;28;20025;-83
2022/05/21 15:58:49;;;;;;;6.07;3.22;;;;;;;19.40;49.15;101902.31;5283898;28;20094;-83
2022/05/21 16:01:22;;;;;;;6.88;3.40;;;;;;;19.34;49.51;101909.25;5283139;28;20024;-83
2022/05/21 16:03:54;;;;;;;7.00;4.03;;;;;;;19.50;48.99;101904.84;5282864;28;20027;-82
2022/05/21 16:06:29;;;;;;;8.35;3.22;;;;;;;19.44;49.46;101906.16;5279609;28;20040;-82
2022/05/21 16:09:00;;;;;;;6.78;3.13;;;;;;;19.50;49.36;101902.03;5282713;28;20034;-82
2022/05/21 16:11:31;;;;;;;10.68;3.45;;;;;;;19.39;49.06;101895.03;5279980;28;20468;-81
2022/05/21 16:14:06;;;;;;;8.35;3.30;;;;;;;19.35;49.56;101894.00;5263176;28;20392;-81
2022/05/21 16:16:37;;;;;;;6.82;3.22;;;;;;;19.34;50.01;101895.19;5282632;28;20021;-80
2022/05/21 16:21:43;;;;;;;8.63;3.38;;;;;;;19.13;49.64;101882.84;5243638;28;20053;-78
2022/05/21 16:24:14;;;;;;;12.18;3.78;;;;;;;19.24;50.23;101887.84;5245317;28;20032;-79
2022/05/21 16:29:36;;;;;;;9.48;3.33;;;;;;;19.29;49.56;101889.69;5246657;28;20037;-80
2022/05/21 16:32:13;;;;;;;6.00;2.92;;;;;;;19.36;50.31;101884.44;5249509;28;20064;-80
2022/05/21 16:34:47;;;;;;;6.47;3.20;;;;;;;19.30;49.51;101883.75;5250889;28;20088;-79
2022/05/21 16:37:21;;;;;;;8.30;3.08;;;;;;;19.09;50.52;101872.22;5265154;28;20477;-80
2022/05/21 16:39:53;;;;;;;6.47;3.00;;;;;;;18.98;51.76;101870.84;5253159;28;20033;-79
2022/05/21 16:42:25;;;;;;;10.15;3.50;;;;;;;19.09;51.89;101868.59;5253896;28;20079;-78
2022/05/21 16:44:57;;;;;;;4.90;2.05;;;;;;;19.17;52.31;101867.81;5245917;28;20056;-79
2022/05/21 16:47:30;;;;;;;6.80;2.97;;;;;;;19.07;51.02;101859.66;5243573;28;20143;-77
2022/05/21 16:50:02;;;;;;;9.45;3.17;;;;;;;19.09;51.49;101869.41;5244067;28;20035;-78
2022/05/21 16:52:34;;;;;;;7.63;2.75;;;;;;;19.17;52.33;101858.53;5244006;28;20088;-76
2022/05/21 16:55:08;;;;;;;8.20;2.70;;;;;;;19.11;51.58;101853.06;5243759;28;20025;-78
2022/05/21 16:57:39;;;;;;;9.18;2.40;;;;;;;19.20;51.54;101864.38;5244448;28;20037;-77
2022/05/21 17:00:12;;;;;;;5.60;2.47;;;;;;;19.17;52.00;101864.16;5255022;28;20039;-78
2022/05/21 17:02:43;;;;;;;6.25;2.40;;;;;;;19.01;52.32;101870.19;5246329;28;20084;-76
2022/05/21 17:05:15;;;;;;;6.60;2.67;;;;;;;18.90;52.43;101860.41;5244309;28;20025;-78
2022/05/21 17:07:47;;;;;;;8.27;2.47;;;;;;;18.98;52.95;101856.81;5243159;28;20045;-79
2022/05/21 17:10:20;;;;;;;8.73;2.63;;;;;;;18.87;52.67;101855.44;5243584;28;20417;-79
2022/05/21 17:12:52;;;;;;;8.32;2.95;;;;;;;18.75;52.90;101858.81;5244221;28;20411;-80
2022/05/21 17:15:23;;;;;;;6.70;2.80;;;;;;;18.85;53.45;101863.34;5243459;28;20031;-79
2022/05/21 17:17:55;;;;;;;8.32;3.28;;;;;;;18.90;53.76;101863.22;5244017;28;20056;-79
2022/05/21 17:20:26;;;;;;;8.70;3.47;;;;;;;18.93;54.02;101859.75;5244117;28;20061;-80
2022/05/21 17:23:01;;;;;;;9.82;3.30;;;;;;;18.96;54.31;101853.47;5243631;28;20022;-78
2022/05/21 17:25:32;;;;;;;9.60;3.85;;;;;;;19.00;54.22;101854.50;5244042;28;20037;-80
2022/05/21 17:30:57;;;;;;;7.78;3.60;;;;;;;19.09;53.52;101849.72;5243568;28;20038;-80
